Time;durP1;ratioP1;P1;durP2;ratioP2;P2;SDS_P1;SDS_P2;PMS_P1;PMS_P2;Temp;Humidity;BMP_temperature;BMP_pressure;BME280_temperature;BME280_humidity;BME280_pressure;Samples;Min_cycle;Max_cycle;Signal;HPM_P1;HPM_P2
2023/09/03 00:00:14;;;;;;;1.30;0.85;;;;;;;14.86;75.07;100780.34;5127579;28;20024;-61
2023/09/03 00:02:39;;;;;;;4.85;1.83;;;;;;;14.85;75.01;100773.41;5126220;28;20020;-62
2023/09/03 00:05:05;;;;;;;6.80;1.52;;;;;;;14.82;74.91;100765.63;5127238;28;20105;-62
2023/09/03 00:07:30;;;;;;;4.78;1.55;;;;;;;14.82;75.71;100770.84;5127425;28;20023;-62
2023/09/03 00:09:56;;;;;;;4.18;1.42;;;;;;;14.82;75.66;100755.16;5127463;28;20114;-62
2023/09/03 00:12:21;;;;;;;0.93;0.85;;;;;;;14.80;75.63;100752.56;5127353;28;20027;-62
2023/09/03 00:14:46;;;;;;;2.10;1.58;;;;;;;14.82;75.13;100750.81;5127429;28;20504;-63
2023/09/03 00:17:14;;;;;;;1.40;1.30;;;;;;;14.81;75.13;100753.44;5127037;28;20069;-62
2023/09/03 00:19:43;;;;;;;5.07;1.90;;;;;;;14.70;75.20;100745.78;5127331;27;20053;-63
2023/09/03 00:22:08;;;;;;;7.13;1.63;;;;;;;14.77;74.78;100765.69;5127298;28;20027;-62
2023/09/03 00:24:34;;;;;;;8.30;1.52;;;;;;;14.73;74.98;100764.00;5127097;28;20023;-62
2023/09/03 00:26:59;;;;;;;8.18;1.52;;;;;;;14.68;75.04;100756.25;5127042;28;20059;-62
2023/09/03 00:29:24;;;;;;;5.97;1.23;;;;;;;14.69;74.95;100751.91;5126840;28;20027;-63
2023/09/03 00:31:50;;;;;;;4.18;1.33;;;;;;;14.68;74.38;100744.97;5126614;28;20050;-63
2023/09/03 00:34:15;;;;;;;4.47;1.55;;;;;;;14.65;74.49;100745.03;5126780;28;20015;-62
2023/09/03 00:36:41;;;;;;;11.75;1.95;;;;;;;14.65;74.13;100755.47;5126748;28;20147;-61
2023/09/03 00:39:06;;;;;;;3.30;1.00;;;;;;;14.62;74.15;100762.47;5126891;28;20039;-63
2023/09/03 00:41:32;;;;;;;9.98;1.67;;;;;;;14.61;74.79;100762.50;5126688;28;20521;-63
2023/09/03 00:43:57;;;;;;;2.88;1.15;;;;;;;14.58;74.90;100762.56;5126715;28;20049;-63
2023/09/03 00:46:23;;;;;;;2.08;0.88;;;;;;;14.54;74.54;100746.09;5126428;28;20082;-62
2023/09/03 00:48:49;;;;;;;1.55;1.15;;;;;;;14.60;74.60;100766.84;5126486;28;20200;-63
2023/09/03 00:51:15;;;;;;;2.65;1.35;;;;;;;14.56;74.32;100761.72;5126600;28;20016;-63
2023/09/03 00:53:45;;;;;;;10.05;2.17;;;;;;;14.57;74.39;100771.31;5126148;28;20027;-62
2023/09/03 00:56:11;;;;;;;4.25;1.42;;;;;;;14.56;74.31;100770.44;5125842;28;20023;-62
2023/09/03 00:58:37;;;;;;;4.95;1.73;;;;;;;14.58;74.05;100781.72;5125971;28;20027;-62
2023/09/03 01:01:04;;;;;;;2.97;1.13;;;;;;;14.56;74.32;100778.28;5125784;28;20049;-62
2023/09/03 01:03:29;;;;;;;2.72;1.13;;;;;;;14.51;74.21;100767.03;5126066;28;20032;-62
2023/09/03 01:05:55;;;;;;;2.90;1.45;;;;;;;14.53;74.15;100777.47;5126023;28;20020;-62
2023/09/03 01:08:21;;;;;;;0.80;0.80;;;;;;;14.53;73.98;100775.72;5125813;28;20593;-63
2023/09/03 01:11:11;;;;;;;2.33;1.27;;;;;;;14.47;74.46;100770.63;5125911;28;20043;-63
2023/09/03 01:13:49;;;;;;;4.70;1.55;;;;;;;14.45;75.52;100785.44;5126031;28;20023;-62
2023/09/03 01:16:25;;;;;;;4.80;1.55;;;;;;;14.40;76.33;100787.28;5125655;28;20047;-62
2023/09/03 01:18:52;;;;;;;3.15;1.20;;;;;;;14.34;76.34;100778.69;5125829;28;20024;-62
2023/09/03 01:21:35;;;;;;;3.42;1.60;;;;;;;14.33;76.15;100783.94;5125610;28;20028;-62
2023/09/03 01:24:12;;;;;;;3.70;1.65;;;;;;;14.34;76.22;100778.69;5125914;28;20019;-62
2023/09/03 01:27:04;;;;;;;11.18;1.50;;;;;;;14.31;76.21;100778.75;5125483;28;20031;-62
2023/09/03 01:29:31;;;;;;;7.05;1.83;;;;;;;14.32;76.22;100782.19;5125882;28;20030;-62
2023/09/03 01:31:59;;;;;;;5.95;1.58;;;;;;;14.31;75.82;100778.75;5125425;28;20024;-61
2023/09/03 01:34:26;;;;;;;0.90;0.80;;;;;;;14.30;76.03;100781.34;5141694;27;20023;-62
2023/09/03 01:36:52;;;;;;;3.33;1.48;;;;;;;14.31;76.38;100789.19;5124498;28;20161;-62
2023/09/03 01:39:17;;;;;;;3.63;1.30;;;;;;;14.29;76.16;100795.31;5125309;28;20055;-62
2023/09/03 01:41:43;;;;;;;19.40;2.08;;;;;;;14.30;76.28;100795.28;5125429;28;20023;-61
2023/09/03 01:44:09;;;;;;;7.20;1.73;;;;;;;14.31;76.22;100803.97;5126109;28;20398;-62
2023/09/03 01:46:47;;;;;;;2.45;1.30;;;;;;;14.30;76.25;100812.69;5125611;28;20072;-63
2023/09/03 01:49:54;;;;;;;4.55;1.20;;;;;;;14.30;76.28;100824.00;5125615;28;20107;-63
2023/09/03 01:52:47;;;;;;;3.15;1.63;;;;;;;14.27;76.43;100824.06;5125527;28;20016;-62
2023/09/03 01:55:16;;;;;;;2.83;1.60;;;;;;;14.31;76.29;100827.50;5125251;28;20023;-63
2023/09/03 01:57:47;;;;;;;5.72;1.58;;;;;;;14.32;76.25;100818.75;5125507;28;20024;-63
2023/09/03 02:00:16;;;;;;;3.33;1.77;;;;;;;14.34;76.29;100819.59;5125478;28;20031;-62
2023/09/03 02:02:44;;;;;;;20.02;2.75;;;;;;;14.32;76.52;100822.25;5125001;28;20046;-63
2023/09/03 02:05:11;;;;;;;3.53;1.15;;;;;;;14.33;76.70;100826.56;5125216;28;20024;-62
2023/09/03 02:07:36;;;;;;;9.18;1.55;;;;;;;14.32;76.29;100821.38;5124981;28;20027;-62
2023/09/03 02:10:02;;;;;;;4.32;1.23;;;;;;;14.33;76.27;100823.13;5125306;28;20026;-63
2023/09/03 02:12:27;;;;;;;2.08;1.30;;;;;;;14.34;76.19;100814.38;5125387;28;20730;-63
2023/09/03 02:14:53;;;;;;;4.35;1.48;;;;;;;14.30;76.16;100797.88;5125254;28;20061;-63
2023/09/03 02:17:21;;;;;;;5.00;1.33;;;;;;;14.27;76.76;100810.13;5125179;28;20038;-60
2023/09/03 02:19:50;;;;;;;1.80;1.30;;;;;;;14.22;76.69;100810.22;5125384;28;20034;-61
2023/09/03 02:22:16;;;;;;;2.63;1.30;;;;;;;14.20;77.09;100818.06;5124934;28;20034;-61
2023/09/03 02:24:42;;;;;;;4.22;1.45;;;;;;;14.19;77.47;100818.09;5125691;28;20067;-62
2023/09/03 02:27:08;;;;;;;3.83;1.08;;;;;;;14.16;77.63;100820.75;5129299;28;20023;-62
2023/09/03 02:29:33;;;;;;;2.05;1.15;;;;;;;14.11;77.57;100829.56;5129421;28;20045;-61
2023/09/03 02:31:59;;;;;;;2.05;1.17;;;;;;;14.12;77.98;100838.25;5129099;28;20020;-62
2023/09/03 02:34:24;;;;;;;3.50;1.60;;;;;;;14.08;77.96;100847.88;5129352;28;20035;-62
2023/09/03 02:36:49;;;;;;;1.73;1.02;;;;;;;14.05;78.24;100850.53;5128882;27;20031;-61
2023/09/03 02:39:15;;;;;;;8.68;1.75;;;;;;;14.02;78.31;100842.75;5129087;28;20051;-62
2023/09/03 02:41:40;;;;;;;3.25;1.17;;;;;;;13.98;78.60;100838.44;5128634;28;20110;-61
2023/09/03 02:44:07;;;;;;;5.03;1.40;;;;;;;14.01;79.38;100833.19;5129320;28;20459;-62
2023/09/03 02:46:32;;;;;;;1.77;1.48;;;;;;;13.99;80.21;100832.38;5129271;28;20023;-62
2023/09/03 02:48:58;;;;;;;4.88;1.55;;;;;;;13.95;80.92;100834.16;5128924;28;20048;-62
2023/09/03 02:51:23;;;;;;;3.58;2.05;;;;;;;13.99;81.30;100840.19;5129098;27;20015;-62
2023/09/03 02:53:51;;;;;;;7.57;1.88;;;;;;;14.00;81.17;100831.47;5128805;28;20451;-62
2023/09/03 02:56:16;;;;;;;6.95;1.58;;;;;;;14.05;81.48;100827.03;5129001;28;20019;-62
2023/09/03 02:58:42;;;;;;;8.90;1.52;;;;;;;14.03;82.09;100823.59;5128725;28;20053;-62
2023/09/03 03:01:09;;;;;;;3.38;1.48;;;;;;;14.02;82.64;100818.38;5128729;28;20057;-62
2023/09/03 03:03:34;;;;;;;3.58;1.52;;;;;;;13.97;83.00;100816.72;5127107;28;20356;-62
2023/09/03 03:06:00;;;;;;;2.80;1.45;;;;;;;13.95;83.18;100820.22;5128746;28;20039;-62
2023/09/03 03:08:25;;;;;;;4.65;1.33;;;;;;;13.89;83.47;100815.97;5128438;28;20095;-62
2023/09/03 03:10:51;;;;;;;2.78;1.45;;;;;;;13.83;83.52;100818.69;5128574;28;20024;-63
2023/09/03 03:13:16;;;;;;;2.40;1.20;;;;;;;13.79;83.55;100817.88;5128711;28;20030;-62
2023/09/03 03:15:42;;;;;;;2.55;1.67;;;;;;;13.68;83.82;100799.78;5128485;28;20023;-62
2023/09/03 03:18:07;;;;;;;2.10;1.05;;;;;;;13.76;84.17;100828.34;5144069;27;20072;-61
2023/09/03 03:20:32;;;;;;;6.30;1.33;;;;;;;13.73;84.45;100828.41;5128417;28;20022;-61
2023/09/03 03:22:58;;;;;;;1.92;1.13;;;;;;;13.61;84.09;100816.41;5126993;28;20030;-62
2023/09/03 03:25:23;;;;;;;3.17;1.10;;;;;;;13.65;84.21;100831.13;5128291;28;20072;-61
2023/09/03 03:27:48;;;;;;;12.18;2.25;;;;;;;13.69;84.34;100848.44;5128179;28;20023;-61
2023/09/03 03:30:14;;;;;;;10.02;1.63;;;;;;;13.67;84.24;100838.94;5128266;28;20023;-61
2023/09/03 03:32:39;;;;;;;5.10;1.50;;;;;;;13.65;84.60;100851.13;5127938;28;20031;-61
2023/09/03 03:35:05;;;;;;;5.38;1.88;;;;;;;13.65;85.03;100856.34;5128258;28;20415;-61
2023/09/03 03:37:31;;;;;;;1.15;0.95;;;;;;;13.63;84.88;100862.44;5125177;28;20020;-60
2023/09/03 03:39:56;;;;;;;2.67;1.20;;;;;;;13.65;84.67;100858.94;5128118;28;20039;-62
2023/09/03 03:42:21;;;;;;;5.88;1.92;;;;;;;13.71;84.84;100861.47;5127943;28;20483;-61
2023/09/03 03:44:47;;;;;;;1.35;0.90;;;;;;;13.75;84.50;100865.78;5128123;28;20031;-61
2023/09/03 03:47:12;;;;;;;5.90;1.83;;;;;;;13.75;84.41;100855.34;5127393;28;20110;-61
2023/09/03 03:49:38;;;;;;;2.55;1.52;;;;;;;13.79;84.57;100871.78;5128196;28;20042;-61
2023/09/03 03:52:03;;;;;;;4.05;1.40;;;;;;;13.83;84.49;100878.72;5127710;27;20452;-61
2023/09/03 03:54:30;;;;;;;2.08;1.08;;;;;;;13.84;84.26;100869.97;5127758;28;20052;-61
2023/09/03 03:56:56;;;;;;;3.72;1.48;;;;;;;13.85;84.38;100869.97;5127617;28;20024;-61
2023/09/03 03:59:22;;;;;;;2.25;1.52;;;;;;;13.81;84.37;100862.19;5127731;28;20115;-60
2023/09/03 04:01:47;;;;;;;4.63;1.83;;;;;;;13.84;84.39;100862.16;5127472;27;20016;-62
2023/09/03 04:04:12;;;;;;;5.85;2.42;;;;;;;13.86;84.56;100855.19;5127371;28;20054;-61
2023/09/03 04:06:38;;;;;;;1.75;1.13;;;;;;;13.84;84.81;100857.81;5127849;28;20110;-61
2023/09/03 04:09:03;;;;;;;2.53;1.52;;;;;;;13.85;84.72;100856.91;5127505;28;20200;-61
2023/09/03 04:11:28;;;;;;;7.40;1.67;;;;;;;13.85;84.79;100856.06;5127519;28;20486;-62
2023/09/03 04:13:54;;;;;;;3.45;1.98;;;;;;;13.89;84.96;100860.34;5127444;28;20028;-61
2023/09/03 04:16:24;;;;;;;2.22;1.20;;;;;;;13.94;84.58;100866.38;5127505;28;20019;-61
2023/09/03 04:18:49;;;;;;;6.97;1.90;;;;;;;13.96;84.32;100861.13;5127393;28;20019;-60
2023/09/03 04:21:15;;;;;;;2.13;1.33;;;;;;;13.98;84.32;100868.03;5127315;28;20054;-60
2023/09/03 04:23:41;;;;;;;1.60;1.10;;;;;;;14.01;84.25;100869.72;5127595;28;20016;-61
2023/09/03 04:26:08;;;;;;;0.90;0.70;;;;;;;14.00;84.29;100857.56;5127568;28;20034;-61
2023/09/03 04:28:34;;;;;;;8.20;1.60;;;;;;;14.07;84.19;100867.03;5127437;28;20019;-61
2023/09/03 04:31:01;;;;;;;2.30;1.10;;;;;;;14.11;84.23;100878.28;5127369;28;20368;-61
2023/09/03 04:33:27;;;;;;;2.38;1.15;;;;;;;14.22;84.23;100883.31;5127074;28;20072;-62
2023/09/03 04:36:00;;;;;;;2.78;1.42;;;;;;;14.31;84.42;100870.16;5127489;28;20023;-60
2023/09/03 04:38:27;;;;;;;2.70;1.23;;;;;;;14.52;84.30;100883.69;5126975;28;20085;-60
2023/09/03 04:40:53;;;;;;;8.05;1.58;;;;;;;14.71;84.62;100875.56;5127109;28;20164;-62
2023/09/03 04:43:18;;;;;;;1.00;0.80;;;;;;;14.84;84.51;100879.69;5126990;28;20165;-61
2023/09/03 04:45:52;;;;;;;9.13;1.33;;;;;;;14.93;84.15;100885.63;5127209;28;20019;-61
2023/09/03 04:48:19;;;;;;;2.10;1.17;;;;;;;15.03;84.18;100887.16;5126330;28;20023;-61
2023/09/03 04:50:45;;;;;;;1.05;0.95;;;;;;;15.07;84.13;100881.00;5127026;28;20022;-60
2023/09/03 04:53:12;;;;;;;3.47;1.52;;;;;;;15.10;83.86;100888.78;5127108;28;20024;-62
2023/09/03 04:55:38;;;;;;;3.03;1.95;;;;;;;15.12;84.13;100894.00;5125652;28;20022;-60
2023/09/03 04:58:04;;;;;;;2.75;1.20;;;;;;;15.11;83.71;100894.91;5126787;28;20028;-61
2023/09/03 05:00:30;;;;;;;1.17;1.05;;;;;;;15.13;83.85;100892.25;5126637;28;20030;-61
2023/09/03 05:02:55;;;;;;;5.28;1.50;;;;;;;15.11;83.56;100890.50;5126517;28;20023;-61
2023/09/03 05:05:21;;;;;;;1.92;1.33;;;;;;;15.16;83.27;100907.88;5126672;28;20026;-60
2023/09/03 05:07:47;;;;;;;2.70;0.95;;;;;;;15.17;83.36;100900.00;5125124;28;20030;-60
2023/09/03 05:10:13;;;;;;;1.20;0.68;;;;;;;15.16;83.05;100905.25;5126590;28;20023;-61
2023/09/03 05:12:40;;;;;;;3.00;1.70;;;;;;;15.17;83.30;100896.50;5126556;28;20079;-60
2023/09/03 05:15:10;;;;;;;7.95;1.48;;;;;;;15.18;83.24;100900.84;5126522;28;20084;-62
2023/09/03 05:17:36;;;;;;;1.20;1.05;;;;;;;15.19;83.23;100908.66;5126207;28;20035;-61
2023/09/03 05:20:02;;;;;;;2.30;1.25;;;;;;;15.21;82.78;100908.63;5126420;28;20028;-60
2023/09/03 05:22:27;;;;;;;2.00;1.13;;;;;;;15.22;82.96;100905.13;5126409;28;20024;-61
2023/09/03 05:24:53;;;;;;;2.17;1.50;;;;;;;15.24;83.06;100906.81;5126452;28;20020;-61
2023/09/03 05:27:18;;;;;;;2.17;1.30;;;;;;;15.24;83.05;100909.44;5124973;28;20023;-60
2023/09/03 05:29:43;;;;;;;2.63;1.10;;;;;;;15.30;82.58;100921.53;5126462;28;20031;-61
2023/09/03 05:32:09;;;;;;;3.70;1.25;;;;;;;15.31;82.82;100910.19;5125940;28;20020;-60
2023/09/03 05:34:34;;;;;;;3.53;1.10;;;;;;;15.35;82.37;100901.38;5125944;28;20022;-62
2023/09/03 05:37:00;;;;;;;1.88;1.15;;;;;;;15.39;82.68;100909.16;5126198;28;20020;-61
2023/09/03 05:39:26;;;;;;;2.25;1.08;;;;;;;15.41;82.26;100907.38;5125869;28;20173;-61
2023/09/03 05:41:52;;;;;;;3.47;0.85;;;;;;;15.44;82.45;100908.19;5125956;28;20023;-59
2023/09/03 05:44:17;;;;;;;2.88;1.20;;;;;;;15.47;82.50;100913.34;5126139;28;20171;-61
2023/09/03 05:46:45;;;;;;;1.50;1.08;;;;;;;15.45;82.65;100909.91;5126004;28;20087;-61
2023/09/03 05:49:10;;;;;;;1.63;1.33;;;;;;;15.51;82.33;100908.06;5125871;28;20080;-61
2023/09/03 05:51:36;;;;;;;6.90;1.20;;;;;;;15.56;82.51;100908.81;5125936;27;20460;-61
2023/09/03 05:54:02;;;;;;;2.13;1.40;;;;;;;15.69;82.21;100917.25;5125844;28;20035;-61
2023/09/03 05:56:27;;;;;;;2.47;1.80;;;;;;;15.71;82.33;100910.22;5125935;28;20034;-60
2023/09/03 05:58:52;;;;;;;1.63;1.08;;;;;;;15.83;82.40;100919.59;5125630;28;20047;-61
2023/09/03 06:01:21;;;;;;;1.35;0.90;;;;;;;15.93;82.52;100925.44;5125261;28;20034;-61
2023/09/03 06:03:48;;;;;;;1.08;0.95;;;;;;;16.03;81.99;100940.09;5125544;28;20418;-61
2023/09/03 06:06:14;;;;;;;3.83;1.63;;;;;;;16.03;82.15;100953.19;5125714;28;20530;-61
2023/09/03 06:08:41;;;;;;;6.18;1.35;;;;;;;15.96;81.94;100928.00;5125731;28;20035;-60
2023/09/03 06:11:08;;;;;;;8.70;1.33;;;;;;;16.04;81.97;100954.06;5125845;28;20027;-61
2023/09/03 06:13:33;;;;;;;3.30;1.30;;;;;;;16.02;81.71;100954.09;5125794;28;20391;-62
2023/09/03 06:15:59;;;;;;;6.75;0.95;;;;;;;16.14;81.66;100958.19;5125596;28;20026;-61
2023/09/03 06:18:25;;;;;;;8.57;1.48;;;;;;;16.19;81.69;100960.69;5125391;28;20110;-62
2023/09/03 06:20:51;;;;;;;2.22;1.38;;;;;;;16.24;81.90;100961.47;5125497;28;20031;-62
2023/09/03 06:23:18;;;;;;;3.10;1.52;;;;;;;16.31;81.35;100947.31;5125486;28;20027;-61
2023/09/03 06:25:47;;;;;;;1.38;0.65;;;;;;;16.34;81.36;100952.47;5125544;28;20161;-61
2023/09/03 06:28:13;;;;;;;3.60;1.15;;;;;;;16.45;81.16;100954.00;5125301;28;20023;-61
2023/09/03 06:30:39;;;;;;;1.80;1.10;;;;;;;16.47;81.06;100944.31;5125640;28;20016;-60
2023/09/03 06:33:04;;;;;;;1.95;1.35;;;;;;;16.56;81.09;100961.59;5125362;28;20024;-61
2023/09/03 06:35:30;;;;;;;2.58;0.95;;;;;;;16.63;80.96;100946.56;5125639;28;20023;-61
2023/09/03 06:37:56;;;;;;;7.25;1.75;;;;;;;16.68;80.53;100944.66;5125361;28;20061;-60
2023/09/03 06:40:22;;;;;;;1.60;1.02;;;;;;;16.62;80.60;100945.69;5125502;28;20027;-62
2023/09/03 06:42:47;;;;;;;7.20;1.65;;;;;;;16.64;80.14;100950.91;5125352;28;20191;-64
2023/09/03 06:45:13;;;;;;;1.27;1.00;;;;;;;16.56;80.22;100946.72;5125392;28;20106;-62
2023/09/03 06:47:38;;;;;;;3.40;1.42;;;;;;;16.52;80.54;100942.44;5125053;28;20391;-61
2023/09/03 06:50:08;;;;;;;1.35;0.85;;;;;;;16.58;80.19;100955.41;5125525;28;20068;-62
2023/09/03 06:52:36;;;;;;;1.88;1.00;;;;;;;16.59;80.62;100961.50;5125354;28;20025;-62
2023/09/03 06:55:02;;;;;;;2.67;1.25;;;;;;;16.69;80.71;100962.13;5125233;28;20034;-62
2023/09/03 06:57:28;;;;;;;11.90;1.35;;;;;;;16.76;80.57;100958.44;5124713;28;20485;-61
2023/09/03 06:59:54;;;;;;;3.17;1.30;;;;;;;16.83;80.63;100951.28;5125098;28;20087;-62
2023/09/03 07:02:19;;;;;;;9.23;1.50;;;;;;;16.93;80.73;100954.53;5124744;28;20051;-60
2023/09/03 07:04:44;;;;;;;7.50;1.40;;;;;;;17.03;80.92;100963.88;5125066;28;20028;-62
2023/09/03 07:07:10;;;;;;;2.28;0.90;;;;;;;17.16;80.72;100968.81;5125452;28;20307;-62
2023/09/03 07:09:35;;;;;;;1.55;1.08;;;;;;;17.30;80.67;100974.56;5125223;28;20053;-60
2023/09/03 07:12:01;;;;;;;3.05;1.10;;;;;;;17.39;80.27;100970.81;5127804;28;20084;-60
2023/09/03 07:14:31;;;;;;;3.08;1.15;;;;;;;17.52;79.47;100970.47;5127573;28;20022;-61
2023/09/03 07:16:56;;;;;;;4.82;1.10;;;;;;;17.74;80.07;100978.59;5128975;27;20110;-61
2023/09/03 07:19:22;;;;;;;5.40;1.60;;;;;;;17.96;79.44;100983.19;5127290;28;20493;-61
2023/09/03 07:21:48;;;;;;;2.03;1.33;;;;;;;18.20;79.04;100984.25;5128786;28;20024;-61
2023/09/03 07:24:14;;;;;;;3.42;1.60;;;;;;;18.39;78.09;100983.66;5128579;27;20084;-61
2023/09/03 07:26:39;;;;;;;5.55;1.40;;;;;;;18.50;77.52;100979.84;5127176;28;20049;-61
2023/09/03 07:29:05;;;;;;;2.50;1.33;;;;;;;18.54;76.93;100990.19;5128467;28;20024;-61
2023/09/03 07:31:31;;;;;;;7.57;1.20;;;;;;;18.51;76.49;100989.44;5128585;28;20020;-61
2023/09/03 07:33:59;;;;;;;2.92;1.50;;;;;;;18.53;76.66;100991.09;5128281;28;20024;-61
2023/09/03 07:36:24;;;;;;;1.75;1.23;;;;;;;18.55;76.60;100999.78;5128496;28;20083;-60
2023/09/03 07:38:50;;;;;;;1.73;1.27;;;;;;;18.57;75.93;100999.75;5128058;28;20142;-62
2023/09/03 07:41:15;;;;;;;2.50;1.27;;;;;;;18.62;75.64;101002.22;5128328;28;20027;-62
2023/09/03 07:43:40;;;;;;;2.05;1.50;;;;;;;18.67;75.76;101000.31;5128282;28;20030;-62
2023/09/03 07:46:06;;;;;;;3.55;1.92;;;;;;;18.77;75.45;101001.72;5128303;28;20375;-62
2023/09/03 07:48:31;;;;;;;9.68;2.45;;;;;;;18.90;75.82;101011.81;5127981;28;20039;-62
2023/09/03 07:50:57;;;;;;;1.38;1.10;;;;;;;18.97;76.13;101010.72;5128221;28;20027;-62
2023/09/03 07:53:22;;;;;;;1.52;1.30;;;;;;;19.11;75.37;101022.53;5128241;28;20030;-62
2023/09/03 07:55:47;;;;;;;2.17;1.17;;;;;;;19.19;74.53;101023.16;5128366;28;20023;-63
2023/09/03 07:58:13;;;;;;;2.17;1.30;;;;;;;19.34;73.92;101021.75;5127828;27;20084;-62
2023/09/03 08:00:40;;;;;;;2.15;1.17;;;;;;;19.51;72.95;101031.69;5127991;28;20027;-62
2023/09/03 08:03:06;;;;;;;1.73;1.20;;;;;;;19.62;73.05;101040.94;5127713;28;20023;-62
2023/09/03 08:05:31;;;;;;;1.88;1.45;;;;;;;19.64;73.34;101036.50;5127789;28;20072;-63
2023/09/03 08:07:56;;;;;;;1.83;1.58;;;;;;;19.69;72.01;101047.72;5127780;27;20023;-62
2023/09/03 08:10:22;;;;;;;4.05;1.20;;;;;;;19.79;71.84;101033.28;5127459;28;20084;-63
2023/09/03 08:12:47;;;;;;;1.80;1.30;;;;;;;19.86;72.34;101040.94;5127443;28;20042;-63
2023/09/03 08:15:14;;;;;;;4.80;1.52;;;;;;;20.04;72.67;101037.69;5127452;28;20019;-63
2023/09/03 08:17:39;;;;;;;1.67;1.30;;;;;;;20.24;72.27;101043.94;5127585;28;20023;-63
2023/09/03 08:20:05;;;;;;;2.83;1.40;;;;;;;20.33;72.18;101052.41;5127778;28;20067;-62
2023/09/03 08:22:30;;;;;;;2.83;1.35;;;;;;;20.43;72.23;101056.41;5126612;28;20358;-63
2023/09/03 08:24:55;;;;;;;11.65;1.55;;;;;;;20.47;71.39;101049.22;5127725;28;20077;-63
2023/09/03 08:27:21;;;;;;;2.90;1.25;;;;;;;20.45;71.50;101059.00;5127346;28;20047;-63
2023/09/03 08:29:46;;;;;;;2.83;1.60;;;;;;;20.41;70.04;101066.16;5127394;28;20026;-63
2023/09/03 08:32:12;;;;;;;2.80;1.77;;;;;;;20.27;69.80;101058.78;5127268;28;20023;-63
2023/09/03 08:34:37;;;;;;;5.00;1.35;;;;;;;20.24;70.25;101069.47;5127173;28;20030;-63
2023/09/03 08:37:03;;;;;;;2.97;1.02;;;;;;;20.23;69.53;101062.44;5127283;28;20024;-63
2023/09/03 08:39:28;;;;;;;1.58;0.77;;;;;;;20.17;69.56;101068.81;5127062;28;20126;-61
2023/09/03 08:41:55;;;;;;;3.20;1.25;;;;;;;20.09;69.93;101073.53;5126979;28;20024;-63
2023/09/03 08:44:23;;;;;;;3.00;1.45;;;;;;;20.04;68.49;101078.97;5127007;28;20019;-62
2023/09/03 08:46:51;;;;;;;4.88;1.83;;;;;;;19.95;67.83;101082.78;5125582;28;20121;-61
2023/09/03 08:49:17;;;;;;;7.68;1.40;;;;;;;19.84;67.88;101071.78;5126330;28;20468;-62
2023/09/03 08:51:43;;;;;;;2.10;1.58;;;;;;;19.80;68.09;101087.72;5126582;27;20540;-58
2023/09/03 08:54:10;;;;;;;3.40;1.23;;;;;;;19.80;68.46;101081.56;5126500;28;20032;-57
2023/09/03 08:56:35;;;;;;;2.15;1.15;;;;;;;19.93;68.00;101095.16;5126162;28;20019;-58
2023/09/03 08:59:00;;;;;;;2.05;1.17;;;;;;;19.99;67.50;101091.44;5126669;28;20054;-55
2023/09/03 09:01:29;;;;;;;2.55;0.93;;;;;;;20.09;67.86;101097.25;5126590;28;20030;-57
2023/09/03 09:04:00;;;;;;;1.35;1.08;;;;;;;20.18;68.06;101107.44;5126595;28;20079;-60
2023/09/03 09:06:25;;;;;;;4.65;1.27;;;;;;;20.33;67.40;101103.38;5126674;28;20106;-58
2023/09/03 09:08:52;;;;;;;1.80;1.15;;;;;;;20.41;67.31;101097.78;5126407;28;20027;-60
2023/09/03 09:11:19;;;;;;;2.53;1.20;;;;;;;20.48;66.21;101104.53;5126556;28;20024;-59
2023/09/03 09:13:57;;;;;;;2.38;0.98;;;;;;;20.51;66.73;101096.50;5126081;28;20108;-58
2023/09/03 09:16:22;;;;;;;1.42;1.13;;;;;;;20.63;66.68;101104.84;5126566;28;20021;-60
2023/09/03 09:18:48;;;;;;;1.85;1.15;;;;;;;20.79;66.78;101097.19;5126090;28;20533;-58
2023/09/03 09:21:13;;;;;;;2.67;1.33;;;;;;;20.90;66.67;101102.03;5126377;28;20020;-60
2023/09/03 09:23:39;;;;;;;1.75;1.00;;;;;;;21.08;66.29;101103.09;5126259;28;20023;-59
2023/09/03 09:26:18;;;;;;;1.35;1.10;;;;;;;21.18;66.36;101104.41;5126161;28;20032;-60
2023/09/03 09:29:19;;;;;;;2.45;1.48;;;;;;;21.17;65.39;101117.66;5125693;28;20083;-58
2023/09/03 09:31:45;;;;;;;1.65;0.90;;;;;;;21.07;65.62;101124.28;5114248;28;20047;-58
2023/09/03 09:34:12;;;;;;;1.98;1.00;;;;;;;21.04;65.54;101112.03;5123875;28;20019;-59
2023/09/03 09:36:38;;;;;;;1.40;0.90;;;;;;;20.97;65.68;101129.94;5126147;28;20034;-60
2023/09/03 09:39:08;;;;;;;7.22;1.00;;;;;;;20.93;65.75;101125.69;5125669;28;20098;-59
2023/09/03 09:41:39;;;;;;;1.60;1.20;;;;;;;20.88;65.75;101127.63;5125928;28;20023;-60
2023/09/03 09:44:11;;;;;;;;;;;;;;;20.97;65.21;101129.94;5126441;28;20023;-59
2023/09/03 09:46:36;;;;;;;5.13;1.43;;;;;;;21.02;65.50;101125.28;5125847;28;19908;-60
2023/09/03 09:49:02;;;;;;;1.27;0.98;;;;;;;21.22;66.03;101125.41;5125559;28;20035;-58
2023/09/03 09:51:29;;;;;;;1.20;0.98;;;;;;;21.37;65.41;101135.34;5125907;28;20045;-57
2023/09/03 09:54:03;;;;;;;2.90;1.52;;;;;;;21.42;65.06;101137.78;5125683;28;20023;-60
2023/09/03 09:56:31;;;;;;;1.30;1.20;;;;;;;21.45;64.68;101142.06;5126025;28;20019;-60
2023/09/03 09:58:58;;;;;;;2.85;1.30;;;;;;;21.41;64.58;101139.56;5125551;28;20019;-59
2023/09/03 10:01:25;;;;;;;8.02;2.40;;;;;;;21.48;65.03;101136.63;5125847;28;20016;-58
2023/09/03 10:03:51;;;;;;;1.70;1.05;;;;;;;21.51;64.27;101136.50;5125431;28;20030;-63
2023/09/03 10:06:21;;;;;;;16.00;1.08;;;;;;;21.53;63.98;101138.16;5125834;28;20027;-62
2023/09/03 10:08:49;;;;;;;1.50;0.85;;;;;;;21.69;64.49;101139.28;5125301;28;20023;-63
2023/09/03 10:11:15;;;;;;;0.85;0.75;;;;;;;21.75;63.78;101146.94;5125560;28;20015;-61
2023/09/03 10:13:42;;;;;;;4.35;1.05;;;;;;;21.88;61.59;101140.22;5125216;28;20016;-61
2023/09/03 10:16:09;;;;;;;1.92;1.30;;;;;;;21.98;62.19;101153.88;5125744;28;20028;-62
2023/09/03 10:18:47;;;;;;;1.20;0.93;;;;;;;22.31;61.94;101146.25;5125176;28;20031;-62
2023/09/03 10:21:18;;;;;;;1.98;1.00;;;;;;;22.86;60.53;101161.31;5125588;28;20056;-64
2023/09/03 10:23:51;;;;;;;1.08;0.88;;;;;;;23.07;58.29;101163.03;5125277;28;20041;-62
2023/09/03 10:26:23;;;;;;;2.60;1.25;;;;;;;23.03;57.30;101159.66;5125334;28;20032;-62
2023/09/03 10:28:55;;;;;;;1.60;1.00;;;;;;;23.36;58.61;101161.56;5125237;28;20090;-62
2023/09/03 10:31:23;;;;;;;1.55;1.00;;;;;;;23.82;58.05;101157.47;5125361;28;20020;-62
2023/09/03 10:33:48;;;;;;;3.03;1.05;;;;;;;23.88;57.02;101156.31;5125150;28;20039;-62
2023/09/03 10:36:19;;;;;;;1.20;0.82;;;;;;;23.88;56.56;101157.16;5125258;28;20028;-62
2023/09/03 10:38:45;;;;;;;1.75;0.80;;;;;;;23.89;55.92;101161.53;5124847;28;20044;-63
2023/09/03 10:41:21;;;;;;;1.95;0.80;;;;;;;23.79;54.35;101168.25;5125115;28;20019;-63
2023/09/03 10:43:50;;;;;;;0.95;0.70;;;;;;;23.81;54.59;101173.47;5124916;28;20041;-63
2023/09/03 10:46:15;;;;;;;1.92;0.90;;;;;;;23.61;52.49;101175.38;5126706;28;20054;-63
2023/09/03 10:48:51;;;;;;;1.40;0.93;;;;;;;23.10;52.49;101187.53;5128940;28;20028;-63
2023/09/03 10:51:41;;;;;;;1.73;0.88;;;;;;;22.65;52.91;101202.94;5127933;28;20019;-62
2023/09/03 10:54:25;;;;;;;2.33;0.90;;;;;;;22.22;51.20;101196.00;5129154;28;20023;-62
2023/09/03 10:57:05;;;;;;;1.17;0.77;;;;;;;21.77;51.36;101206.75;5129061;28;20031;-62
2023/09/03 10:59:58;;;;;;;6.20;0.90;;;;;;;21.41;51.55;101210.00;5129041;28;20107;-62
2023/09/03 11:02:26;;;;;;;1.40;0.63;;;;;;;21.18;52.61;101191.53;5128863;28;20161;-61
2023/09/03 11:05:14;;;;;;;2.75;1.10;;;;;;;21.17;51.57;101202.16;5128666;28;20024;-62
2023/09/03 11:07:41;;;;;;;1.63;0.80;;;;;;;21.22;53.27;101196.69;5128524;28;20020;-61
2023/09/03 11:10:25;;;;;;;2.45;0.95;;;;;;;21.29;53.45;101192.88;5143850;27;20024;-63
2023/09/03 11:12:52;;;;;;;1.40;0.73;;;;;;;21.17;52.48;101200.38;5128207;28;20046;-54
2023/09/03 11:15:18;;;;;;;0.95;0.80;;;;;;;21.18;52.83;101198.59;5128582;28;20019;-54
2023/09/03 11:17:54;;;;;;;1.30;0.73;;;;;;;21.27;53.16;101207.91;5128195;28;20028;-52
2023/09/03 11:20:27;;;;;;;4.40;1.10;;;;;;;21.40;53.93;101205.63;5128351;28;20023;-55
2023/09/03 11:22:53;;;;;;;4.43;0.77;;;;;;;21.44;53.77;101209.03;5128218;28;20019;-60
2023/09/03 11:25:32;;;;;;;2.25;0.80;;;;;;;21.45;52.83;101223.94;5128429;28;20059;-52